Time;durP1;ratioP1;P1;durP2;ratioP2;P2;SDS_P1;SDS_P2;PMS_P1;PMS_P2;Temp;Humidity;BMP_temperature;BMP_pressure;BME280_temperature;BME280_humidity;BME280_pressure;Samples;Min_cycle;Max_cycle;Signal;HPM_P1;HPM_P2
2023/05/26 00:01:48;;;;;;;345.73;37.23;;;;;;;17.29;70.83;98736.22;4197198;28;20749;-85
2023/05/26 00:03:51;;;;;;;346.23;34.80;;;;;;;17.20;69.10;98736.13;4199859;28;20651;-85
2023/05/26 00:05:55;;;;;;;352.83;27.33;;;;;;;17.18;69.88;98740.69;4200666;28;20704;-85
2023/05/26 00:08:00;;;;;;;346.07;39.63;;;;;;;17.19;68.05;98745.00;4199110;28;20674;-85
2023/05/26 00:10:03;;;;;;;351.30;33.27;;;;;;;17.18;68.54;98748.59;4184831;28;20624;-85
2023/05/26 00:12:07;;;;;;;344.93;34.17;;;;;;;17.17;69.57;98749.56;4200365;28;20614;-85
2023/05/26 00:14:14;;;;;;;386.10;32.57;;;;;;;17.18;70.25;98743.31;4188347;28;20622;-84
2023/05/26 00:16:17;;;;;;;347.10;29.87;;;;;;;17.20;69.62;98744.03;4204590;28;20692;-84
2023/05/26 00:18:20;;;;;;;347.13;39.27;;;;;;;17.20;70.02;98744.03;4183558;28;21370;-85
2023/05/26 00:20:23;;;;;;;352.17;38.97;;;;;;;17.16;69.20;98740.81;4200315;28;20634;-85
2023/05/26 00:22:27;;;;;;;371.20;36.27;;;;;;;17.16;69.84;98738.19;4190817;28;20644;-85
2023/05/26 00:24:31;;;;;;;351.97;32.50;;;;;;;17.16;70.25;98747.91;4200591;28;20627;-85
2023/05/26 00:26:35;;;;;;;345.27;31.87;;;;;;;17.18;70.33;98743.31;4199114;28;20725;-85
2023/05/26 00:28:38;;;;;;;359.37;34.53;;;;;;;17.14;69.46;98741.94;4196436;28;20630;-85
2023/05/26 00:30:42;;;;;;;364.20;41.07;;;;;;;17.16;68.42;98743.47;4200524;28;20642;-85
2023/05/26 00:32:45;;;;;;;346.53;32.67;;;;;;;17.19;70.12;98750.28;4200581;28;20637;-85
2023/05/26 00:34:48;;;;;;;345.13;31.57;;;;;;;17.19;70.17;98753.75;4181953;28;20638;-85
2023/05/26 00:36:51;;;;;;;357.77;38.53;;;;;;;17.21;70.38;98758.94;4190066;28;20734;-85
2023/05/26 00:38:54;;;;;;;346.57;31.67;;;;;;;17.22;70.46;98755.34;4186455;28;21213;-84
2023/05/26 00:40:59;;;;;;;345.13;34.53;;;;;;;17.21;70.50;98745.75;4200232;28;20647;-85
2023/05/26 00:43:02;;;;;;;370.80;32.53;;;;;;;17.22;70.04;98745.63;4199071;28;20726;-85
2023/05/26 00:45:06;;;;;;;345.73;32.57;;;;;;;17.20;69.98;98742.28;4204580;28;20625;-85
2023/05/26 00:47:09;;;;;;;362.43;35.97;;;;;;;17.19;71.73;98750.28;4185920;28;20639;-85
2023/05/26 00:49:12;;;;;;;348.20;33.93;;;;;;;17.15;71.04;98748.84;4185079;28;21248;-85
2023/05/26 00:51:15;;;;;;;346.13;35.67;;;;;;;17.16;71.55;98755.81;4183461;28;20639;-85
2023/05/26 00:53:19;;;;;;;346.07;41.70;;;;;;;17.12;70.39;98749.97;4199324;28;20670;-85
2023/05/26 00:55:23;;;;;;;344.70;30.83;;;;;;;17.11;71.41;98753.56;4205608;28;20696;-85
2023/05/26 00:57:29;;;;;;;347.17;30.07;;;;;;;17.07;70.77;98744.22;4200705;28;20666;-85
2023/05/26 00:59:32;;;;;;;351.57;35.77;;;;;;;17.02;69.35;98735.06;4188844;28;21236;-85
2023/05/26 01:01:35;;;;;;;347.80;40.60;;;;;;;17.00;69.48;98740.47;4199843;28;20984;-85
2023/05/26 01:03:39;;;;;;;370.53;31.07;;;;;;;17.01;71.08;98736.00;4184553;28;20650;-85
2023/05/26 01:05:42;;;;;;;347.50;30.90;;;;;;;16.95;71.21;98736.50;4187503;28;20713;-85
2023/05/26 01:07:45;;;;;;;347.90;35.97;;;;;;;16.94;70.71;98737.47;4214023;28;21244;-84
2023/05/26 01:09:49;;;;;;;374.80;39.97;;;;;;;16.94;71.26;98739.28;4202100;28;20669;-85
2023/05/26 01:11:57;;;;;;;347.43;33.60;;;;;;;16.96;70.94;98738.19;4199406;28;20716;-85
2023/05/26 01:14:05;;;;;;;344.80;33.53;;;;;;;16.96;70.66;98740.84;4183745;28;20657;-85
2023/05/26 01:16:11;;;;;;;348.87;37.23;;;;;;;16.97;70.31;98745.13;4201526;28;20640;-85
2023/05/26 01:18:14;;;;;;;347.23;36.80;;;;;;;16.97;70.37;98744.28;4196821;28;20640;-85
2023/05/26 01:20:19;;;;;;;345.27;31.67;;;;;;;16.98;70.42;98740.72;4199653;28;20622;-85
2023/05/26 01:22:31;;;;;;;348.63;35.10;;;;;;;16.96;70.51;98740.84;4191263;28;20633;-85
2023/05/26 01:24:40;;;;;;;347.63;40.53;;;;;;;16.96;71.42;98742.63;4189735;28;20637;-85
2023/05/26 01:27:01;;;;;;;384.17;42.30;;;;;;;16.94;73.12;98742.75;4186676;28;20627;-85
2023/05/26 01:29:10;;;;;;;345.47;38.53;;;;;;;16.91;72.68;98739.53;4200807;28;21200;-85
2023/05/26 01:31:15;;;;;;;363.80;41.90;;;;;;;16.88;71.70;98740.63;4191307;28;21275;-85
2023/05/26 01:33:18;;;;;;;345.27;30.40;;;;;;;16.83;70.57;98737.53;4187228;28;20638;-85
2023/05/26 01:35:22;;;;;;;469.33;44.87;;;;;;;16.83;70.13;98732.25;4203437;28;21051;-85
2023/05/26 01:37:25;;;;;;;348.13;36.87;;;;;;;16.84;70.01;98741.00;4188024;28;20661;-85
2023/05/26 01:39:30;;;;;;;347.27;42.73;;;;;;;16.82;71.81;98743.75;4190417;28;20654;-85
2023/05/26 01:41:39;;;;;;;347.83;36.30;;;;;;;16.82;70.97;98741.13;4202810;28;21253;-85
2023/05/26 01:43:48;;;;;;;351.57;35.13;;;;;;;16.79;72.78;98740.56;4198780;28;20694;-85
2023/05/26 01:45:57;;;;;;;367.90;39.50;;;;;;;16.75;70.84;98734.72;4190705;28;20631;-85
2023/05/26 01:48:02;;;;;;;354.73;30.60;;;;;;;16.73;71.50;98741.91;4192416;28;20702;-84
2023/05/26 01:50:07;;;;;;;359.13;42.77;;;;;;;16.72;73.60;98728.88;4191389;28;20633;-85
2023/05/26 01:52:12;;;;;;;361.17;38.33;;;;;;;16.69;71.61;98737.84;4183082;28;20623;-85
2023/05/26 01:54:17;;;;;;;346.13;32.63;;;;;;;16.66;72.68;98739.91;4209151;28;20664;-85
2023/05/26 01:56:21;;;;;;;351.93;37.37;;;;;;;16.64;72.77;98752.34;4206113;28;21010;-85
2023/05/26 01:58:27;;;;;;;343.73;35.97;;;;;;;16.52;72.67;98743.66;4180972;28;20680;-85
2023/05/26 02:00:30;;;;;;;361.80;44.50;;;;;;;16.52;71.34;98753.34;4190030;28;20760;-85
2023/05/26 02:02:35;;;;;;;346.57;32.87;;;;;;;16.50;71.49;98758.75;4200594;28;21671;-85
2023/05/26 02:04:38;;;;;;;342.17;36.73;;;;;;;16.47;73.04;98757.34;4179973;28;21285;-85
2023/05/26 02:06:41;;;;;;;349.87;37.47;;;;;;;16.46;72.39;98764.38;4206128;28;20760;-85
2023/05/26 02:08:44;;;;;;;400.70;40.37;;;;;;;16.43;73.04;98755.91;4190718;28;20668;-85
2023/05/26 02:10:48;;;;;;;357.00;34.40;;;;;;;16.36;71.90;98750.31;4201635;28;20628;-85
2023/05/26 02:12:51;;;;;;;349.07;38.83;;;;;;;16.36;71.84;98757.38;4190098;28;20986;-85
2023/05/26 02:14:54;;;;;;;346.40;38.43;;;;;;;16.36;71.63;98752.09;4214599;28;20626;-85
2023/05/26 02:16:57;;;;;;;370.70;39.67;;;;;;;16.32;72.05;98758.56;4204033;28;21356;-85
2023/05/26 02:19:02;;;;;;;347.47;41.50;;;;;;;16.20;71.89;98762.16;4190184;28;20640;-85
2023/05/26 02:21:10;;;;;;;385.93;42.63;;;;;;;16.11;71.07;98747.09;4203029;28;20655;-85
2023/05/26 02:23:13;;;;;;;347.83;38.07;;;;;;;16.09;73.79;98752.47;4189608;28;20622;-85
2023/05/26 02:25:16;;;;;;;357.10;40.77;;;;;;;16.08;73.97;98756.06;4191974;28;20660;-85
2023/05/26 02:27:19;;;;;;;353.00;40.93;;;;;;;16.07;71.91;98761.44;4183103;28;20711;-85
2023/05/26 02:29:22;;;;;;;358.47;40.40;;;;;;;16.03;72.01;98760.03;4201977;28;20633;-85
2023/05/26 02:31:25;;;;;;;366.93;40.87;;;;;;;16.01;73.01;98755.84;4202197;28;20645;-85
2023/05/26 02:33:29;;;;;;;363.47;36.43;;;;;;;15.98;72.85;98749.00;4199738;28;20729;-85
2023/05/26 02:35:34;;;;;;;351.57;42.43;;;;;;;15.98;73.26;98756.91;4206469;28;20621;-85
2023/05/26 02:37:37;;;;;;;546.23;49.47;;;;;;;15.92;72.75;98761.81;4210826;28;20731;-85
2023/05/26 02:39:42;;;;;;;351.70;40.57;;;;;;;15.90;73.24;98754.06;4187702;28;21260;-85
2023/05/26 02:41:45;;;;;;;348.20;40.27;;;;;;;15.90;72.60;98759.31;4186025;28;20637;-85
2023/05/26 02:43:48;;;;;;;418.67;44.97;;;;;;;15.86;73.08;98759.69;4200415;28;20730;-85
2023/05/26 02:45:59;;;;;;;368.17;42.57;;;;;;;15.86;72.87;98755.28;4206556;28;20671;-85
2023/05/26 02:48:02;;;;;;;409.00;40.83;;;;;;;15.86;74.50;98751.78;4189601;28;20657;-85
2023/05/26 02:50:07;;;;;;;436.47;43.97;;;;;;;15.89;73.89;98762.06;4190373;28;20624;-85
2023/05/26 02:52:11;;;;;;;355.90;39.70;;;;;;;15.92;72.46;98760.06;4206571;28;20624;-85
2023/05/26 02:54:15;;;;;;;373.20;38.17;;;;;;;15.91;72.54;98760.19;4205415;28;20628;-85
2023/05/26 02:56:18;;;;;;;356.83;37.73;;;;;;;15.91;73.02;98758.38;4199533;28;20979;-85
2023/05/26 02:58:21;;;;;;;361.63;42.23;;;;;;;15.91;74.20;98760.19;4196518;28;21055;-85
2023/05/26 03:00:24;;;;;;;345.83;40.77;;;;;;;15.91;73.46;98757.53;4189721;28;20676;-85
2023/05/26 03:02:27;;;;;;;372.47;44.37;;;;;;;15.87;74.19;98754.28;4199899;28;20685;-85
2023/05/26 03:04:31;;;;;;;358.20;40.80;;;;;;;15.87;74.00;98756.09;4192585;28;20629;-85
2023/05/26 03:06:34;;;;;;;365.50;41.73;;;;;;;15.88;74.08;98758.63;4200124;28;20659;-85
2023/05/26 03:08:39;;;;;;;354.53;33.37;;;;;;;15.92;72.64;98760.06;4198265;28;20628;-85
2023/05/26 03:10:43;;;;;;;352.63;39.63;;;;;;;15.93;73.44;98758.25;4190147;28;20638;-85
2023/05/26 03:12:46;;;;;;;378.50;42.40;;;;;;;15.91;74.06;98757.53;4188307;28;21219;-85
2023/05/26 03:14:50;;;;;;;423.07;39.73;;;;;;;15.91;75.28;98763.63;4189024;28;20626;-85
2023/05/26 03:16:56;;;;;;;405.07;42.90;;;;;;;15.91;75.02;98760.19;4184304;28;21029;-85
2023/05/26 03:18:59;;;;;;;349.83;35.10;;;;;;;15.90;73.62;98766.38;4191895;28;20629;-85
2023/05/26 03:21:04;;;;;;;359.80;40.03;;;;;;;15.92;75.31;98767.94;4187081;28;20662;-85
2023/05/26 03:23:07;;;;;;;359.13;36.07;;;;;;;15.94;73.02;98763.41;4190544;28;20659;-85
2023/05/26 03:25:12;;;;;;;354.37;35.47;;;;;;;15.98;75.21;98775.31;4190889;28;20728;-85
2023/05/26 03:27:22;;;;;;;400.27;41.90;;;;;;;15.99;75.22;98773.56;4198474;28;20641;-85
2023/05/26 03:29:27;;;;;;;349.50;41.37;;;;;;;15.98;75.39;98766.59;4187177;28;20633;-85
2023/05/26 03:31:30;;;;;;;381.33;34.87;;;;;;;15.99;73.38;98768.28;4202017;28;20645;-85
2023/05/26 03:33:33;;;;;;;367.00;48.13;;;;;;;15.98;73.01;98775.31;4196605;28;20641;-85
2023/05/26 03:35:37;;;;;;;351.67;35.73;;;;;;;15.99;72.45;98782.28;4196924;28;20634;-85
2023/05/26 03:37:41;;;;;;;344.73;36.63;;;;;;;16.00;72.71;98770.81;4190735;28;20630;-85
2023/05/26 03:39:45;;;;;;;394.33;37.57;;;;;;;15.99;73.48;98769.13;4191375;28;21065;-84
2023/05/26 03:41:50;;;;;;;365.83;35.73;;;;;;;15.99;72.93;98773.56;4196829;28;20632;-85
2023/05/26 03:43:55;;;;;;;349.47;38.93;;;;;;;15.97;74.50;98773.69;4204845;28;20627;-85
2023/05/26 03:46:00;;;;;;;355.50;44.53;;;;;;;15.95;73.40;98765.06;4205593;28;20625;-85
2023/05/26 03:48:04;;;;;;;392.57;40.43;;;;;;;15.93;74.93;98777.50;4189259;28;20673;-85
2023/05/26 03:50:08;;;;;;;380.93;43.37;;;;;;;15.93;73.43;98774.03;4202282;28;20624;-85
2023/05/26 03:52:12;;;;;;;362.57;36.97;;;;;;;15.95;73.11;98777.38;4185126;28;20980;-85
2023/05/26 03:54:16;;;;;;;305.30;40.23;;;;;;;15.86;73.27;98770.19;4206588;28;21212;-85
2023/05/26 03:56:20;;;;;;;347.23;38.93;;;;;;;15.91;72.72;98775.97;4200897;28;20630;-85
2023/05/26 03:58:24;;;;;;;349.30;37.63;;;;;;;15.90;75.17;98775.09;4198327;28;20641;-85
2023/05/26 04:00:28;;;;;;;368.23;41.17;;;;;;;15.91;74.21;98782.06;4203327;28;20656;-85
2023/05/26 04:02:31;;;;;;;377.23;40.43;;;;;;;15.90;74.68;98782.16;4187645;28;20731;-85
2023/05/26 04:04:35;;;;;;;364.27;42.80;;;;;;;15.91;75.26;98776.78;4189256;28;20658;-85
2023/05/26 04:06:38;;;;;;;402.77;45.07;;;;;;;15.89;74.80;98783.97;4185349;28;21244;-85
2023/05/26 04:08:42;;;;;;;386.90;44.40;;;;;;;15.89;77.46;98776.09;4201076;28;21024;-85
2023/05/26 04:10:45;;;;;;;357.23;33.77;;;;;;;15.91;77.86;98782.06;4188808;28;20665;-85
2023/05/26 04:12:50;;;;;;;352.60;42.23;;;;;;;15.95;75.85;98788.75;4198058;28;21205;-85
2023/05/26 04:14:55;;;;;;;359.57;39.63;;;;;;;15.97;76.43;98786.84;4200635;28;20677;-85
2023/05/26 04:16:58;;;;;;;358.17;40.20;;;;;;;16.00;77.55;98786.59;4199349;28;20718;-85
2023/05/26 04:19:01;;;;;;;350.43;36.10;;;;;;;16.01;76.18;98788.25;4201156;28;20696;-84
2023/05/26 04:21:05;;;;;;;355.27;46.77;;;;;;;16.03;77.56;98786.34;4190254;28;21085;-85
2023/05/26 04:23:08;;;;;;;359.10;41.23;;;;;;;16.06;75.94;98789.56;4199478;28;21233;-85
2023/05/26 04:25:12;;;;;;;376.33;41.10;;;;;;;16.08;77.91;98792.91;4188702;28;21075;-85
2023/05/26 04:27:26;;;;;;;351.00;41.33;;;;;;;16.09;78.30;98791.13;4189870;28;20660;-85
2023/05/26 04:29:41;;;;;;;350.27;43.93;;;;;;;16.11;77.24;98794.47;4205180;28;20673;-85
2023/05/26 04:32:08;;;;;;;351.13;39.53;;;;;;;16.14;78.28;98796.84;4183126;28;20654;-85
2023/05/26 04:34:30;;;;;;;352.20;43.37;;;;;;;16.18;76.31;98800.94;4186706;28;20654;-85
2023/05/26 04:36:46;;;;;;;360.63;40.77;;;;;;;16.21;76.95;98803.31;4201422;28;20934;-85
2023/05/26 04:38:49;;;;;;;408.27;43.17;;;;;;;16.24;76.10;98800.47;4194845;28;20627;-85
2023/05/26 04:40:52;;;;;;;365.47;42.13;;;;;;;16.27;76.67;98808.13;4184971;28;20666;-83
2023/05/26 04:42:58;;;;;;;353.53;38.77;;;;;;;16.33;77.53;98805.84;4197639;28;20640;-85
2023/05/26 04:45:01;;;;;;;383.27;34.43;;;;;;;16.35;76.28;98803.09;4204368;28;20645;-86
2023/05/26 04:47:08;;;;;;;363.43;38.37;;;;;;;16.35;77.08;98800.44;4190498;28;21083;-86
2023/05/26 04:49:13;;;;;;;365.17;39.50;;;;;;;16.38;76.27;98801.03;4199040;28;21095;-86
2023/05/26 04:51:16;;;;;;;348.83;38.37;;;;;;;16.42;75.46;98793.72;4195919;28;20632;-86
2023/05/26 04:53:19;;;;;;;354.40;36.67;;;;;;;16.40;74.47;98785.13;4200562;28;20704;-86
2023/05/26 04:55:23;;;;;;;363.80;37.17;;;;;;;16.43;76.78;98790.13;4185075;28;20745;-86
2023/05/26 04:57:26;;;;;;;347.33;36.17;;;;;;;16.46;78.50;98784.63;4183082;28;21210;-86
2023/05/26 04:59:31;;;;;;;358.37;35.43;;;;;;;16.48;76.27;98793.22;4201847;28;21020;-86
2023/05/26 05:01:35;;;;;;;350.80;40.93;;;;;;;16.48;76.31;98790.59;4195601;28;20663;-86
2023/05/26 05:04:03;;;;;;;348.30;33.67;;;;;;;16.45;74.69;98789.06;4183390;28;20750;-85
2023/05/26 05:06:09;;;;;;;352.67;39.47;;;;;;;16.46;76.31;98789.88;4186223;28;20711;-85
2023/05/26 05:08:12;;;;;;;348.60;41.80;;;;;;;16.50;75.33;98799.22;4198919;28;20717;-85
2023/05/26 05:10:15;;;;;;;361.57;35.77;;;;;;;16.52;74.88;98798.13;4180429;28;21097;-85
2023/05/26 05:12:18;;;;;;;387.53;38.70;;;;;;;16.55;76.38;98795.25;4197365;28;20673;-85
2023/05/26 05:14:22;;;;;;;350.37;34.10;;;;;;;16.58;75.57;98809.03;4184600;28;20671;-84
2023/05/26 05:16:25;;;;;;;348.30;44.70;;;;;;;16.63;75.61;98809.47;4182183;28;21067;-85
2023/05/26 05:18:29;;;;;;;350.40;37.90;;;;;;;16.69;76.33;98814.25;4186485;28;20644;-85
2023/05/26 05:20:33;;;;;;;349.07;39.17;;;;;;;16.74;76.43;98806.81;4187602;28;21317;-85
2023/05/26 05:22:37;;;;;;;348.47;35.53;;;;;;;16.80;77.63;98822.09;4198852;28;20652;-84
2023/05/26 05:24:41;;;;;;;363.67;35.47;;;;;;;16.84;75.73;98817.41;4201623;28;20677;-85
2023/05/26 05:26:45;;;;;;;349.80;38.30;;;;;;;16.90;76.91;98832.72;4200258;28;20644;-85
2023/05/26 05:28:52;;;;;;;350.13;37.57;;;;;;;16.92;75.28;98825.56;4184322;28;20732;-85
2023/05/26 05:31:24;;;;;;;389.87;39.57;;;;;;;16.99;75.95;98830.19;4192618;28;20698;-85
2023/05/26 05:33:28;;;;;;;377.10;37.43;;;;;;;17.06;75.79;98831.34;4180728;28;20633;-85
2023/05/26 05:35:31;;;;;;;348.47;35.47;;;;;;;17.14;74.31;98831.56;4188401;28;20631;-85
2023/05/26 05:37:35;;;;;;;358.13;31.77;;;;;;;17.26;75.47;98836.69;4183345;28;20631;-85
2023/05/26 05:39:39;;;;;;;351.53;34.70;;;;;;;17.44;74.54;98847.50;4191522;28;20750;-85
2023/05/26 05:41:43;;;;;;;360.23;32.07;;;;;;;17.63;73.56;98854.56;4181578;28;21289;-88
2023/05/26 05:43:48;;;;;;;363.77;38.07;;;;;;;17.86;72.64;98855.25;4207383;28;20622;-85
2023/05/26 05:45:52;;;;;;;360.47;33.43;;;;;;;18.11;72.59;98863.59;4203981;28;20628;-83
2023/05/26 05:48:24;;;;;;;362.00;37.83;;;;;;;18.53;72.42;98874.75;4208423;28;20666;-85
2023/05/26 05:50:34;;;;;;;348.47;33.27;;;;;;;18.84;71.31;98865.81;4198826;28;20649;-85
2023/05/26 05:52:37;;;;;;;347.27;35.23;;;;;;;19.10;70.23;98864.34;4198933;28;20624;-85
2023/05/26 05:54:41;;;;;;;346.33;26.03;;;;;;;19.33;70.43;98868.38;4208829;28;21034;-85
2023/05/26 05:56:45;;;;;;;349.00;32.40;;;;;;;19.56;69.25;98874.09;4188430;28;21233;-85
2023/05/26 05:58:50;;;;;;;348.63;34.67;;;;;;;19.78;68.83;98884.34;4197559;28;20615;-85
2023/05/26 06:00:54;;;;;;;347.23;32.63;;;;;;;19.95;68.49;98886.28;4200212;28;20629;-85
2023/05/26 06:02:57;;;;;;;345.80;23.50;;;;;;;20.14;67.48;98888.91;4186327;28;20662;-85
2023/05/26 06:05:00;;;;;;;345.77;26.37;;;;;;;20.31;66.45;98886.31;4190482;28;20661;-85
2023/05/26 06:07:06;;;;;;;348.17;28.10;;;;;;;20.45;66.67;98888.50;4200008;28;20660;-85
2023/05/26 06:09:09;;;;;;;346.43;32.73;;;;;;;20.59;65.50;98895.97;4191234;28;20678;-85
2023/05/26 06:11:14;;;;;;;346.63;25.43;;;;;;;20.54;63.97;98882.34;4190831;28;21228;-85
2023/05/26 06:13:19;;;;;;;347.37;30.37;;;;;;;20.66;67.06;98892.59;4208551;28;20650;-85
2023/05/26 06:15:23;;;;;;;347.03;29.60;;;;;;;20.83;65.26;98890.00;4200938;28;20685;-85
2023/05/26 06:17:26;;;;;;;346.33;30.37;;;;;;;21.02;65.67;98886.41;4195055;28;20632;-85
2023/05/26 06:19:29;;;;;;;345.53;29.37;;;;;;;21.17;63.75;98891.03;4203919;28;20719;-85
2023/05/26 06:21:32;;;;;;;344.63;26.23;;;;;;;21.30;63.57;98891.50;4182705;28;20640;-85
2023/05/26 06:23:38;;;;;;;347.17;27.77;;;;;;;21.50;64.69;98890.38;4205438;28;20614;-85
2023/05/26 06:25:41;;;;;;;276.70;26.27;;;;;;;21.68;63.22;98896.50;4207405;28;20632;-85
2023/05/26 06:27:46;;;;;;;345.40;28.70;;;;;;;21.72;64.33;98896.06;4189478;28;20699;-85
2023/05/26 06:29:50;;;;;;;345.40;29.00;;;;;;;21.96;63.86;98904.22;4192657;28;20625;-85
2023/05/26 06:31:55;;;;;;;354.87;34.03;;;;;;;22.18;63.08;98898.41;4204094;28;21264;-85
2023/05/26 06:33:58;;;;;;;343.40;29.30;;;;;;;22.41;60.71;98898.53;4179319;28;20678;-85
2023/05/26 06:36:01;;;;;;;343.63;27.67;;;;;;;22.57;60.31;98900.47;4201249;28;20722;-85
2023/05/26 06:38:04;;;;;;;348.03;27.20;;;;;;;22.74;60.68;98900.38;4204906;28;20672;-85
2023/05/26 06:40:09;;;;;;;342.97;27.53;;;;;;;22.85;59.75;98894.75;4192887;28;20669;-85
2023/05/26 06:42:14;;;;;;;345.77;28.57;;;;;;;22.81;58.76;98888.94;4180242;28;20742;-88
2023/05/26 06:44:19;;;;;;;346.00;26.00;;;;;;;22.87;59.61;98898.09;4200718;28;20626;-85
2023/05/26 06:46:22;;;;;;;345.53;30.57;;;;;;;22.99;60.95;98904.84;4177273;28;20735;-85
2023/05/26 06:48:26;;;;;;;343.93;28.90;;;;;;;23.14;59.50;98900.53;4185751;28;20637;-85
2023/05/26 06:50:49;;;;;;;344.57;30.70;;;;;;;23.31;58.93;98900.41;4193476;28;20998;-85
2023/05/26 06:52:52;;;;;;;344.00;24.93;;;;;;;23.40;58.89;98897.59;4196586;28;20636;-85
2023/05/26 06:54:55;;;;;;;346.77;27.57;;;;;;;23.57;59.17;98903.75;4192455;28;20662;-84
2023/05/26 06:56:58;;;;;;;355.87;33.07;;;;;;;23.73;59.12;98901.97;4200858;28;21056;-85
2023/05/26 06:59:01;;;;;;;346.60;24.47;;;;;;;23.81;58.31;98897.47;4190653;28;20622;-84
2023/05/26 07:01:06;;;;;;;344.07;24.40;;;;;;;23.86;58.00;98888.97;4202450;28;20641;-85
2023/05/26 07:03:11;;;;;;;344.40;28.60;;;;;;;23.91;59.33;98898.13;4200401;28;20660;-85
2023/05/26 07:05:17;;;;;;;345.50;26.40;;;;;;;24.13;59.09;98891.28;4202357;28;21027;-85
2023/05/26 07:07:22;;;;;;;336.27;23.87;;;;;;;24.29;57.39;98890.22;4186967;28;21255;-85
2023/05/26 07:09:25;;;;;;;346.43;28.13;;;;;;;24.40;57.33;98894.41;4205346;28;20702;-85
2023/05/26 07:11:34;;;;;;;345.47;35.67;;;;;;;24.49;57.68;98896.91;4200709;28;20659;-85
2023/05/26 07:13:40;;;;;;;343.83;27.90;;;;;;;24.54;57.39;98896.41;4182470;28;21098;-85
2023/05/26 07:15:44;;;;;;;345.47;27.07;;;;;;;24.67;56.29;98894.81;4203627;28;20669;-85
2023/05/26 07:17:51;;;;;;;345.77;28.37;;;;;;;24.73;58.65;98896.78;4200534;28;20676;-85
2023/05/26 07:19:54;;;;;;;344.23;28.43;;;;;;;24.81;57.53;98902.94;4180142;28;20634;-85
2023/05/26 07:21:57;;;;;;;343.27;26.77;;;;;;;24.88;57.05;98895.06;4204120;28;20640;-85
2023/05/26 07:24:01;;;;;;;346.87;29.60;;;;;;;24.93;56.17;98893.53;4201489;28;20672;-85
2023/05/26 07:26:04;;;;;;;344.17;26.73;;;;;;;24.99;55.33;98895.56;4184994;28;20635;-85
2023/05/26 07:28:07;;;;;;;343.80;27.60;;;;;;;25.11;56.25;98898.66;4197508;28;20651;-86
2023/05/26 07:30:12;;;;;;;344.90;27.90;;;;;;;25.19;57.24;98900.28;4200297;28;20707;-85
2023/05/26 07:32:33;;;;;;;345.40;22.03;;;;;;;25.27;56.35;98900.25;4199328;28;20740;-85
2023/05/26 07:34:38;;;;;;;344.53;27.27;;;;;;;25.28;56.52;98904.56;4185320;28;20639;-85
2023/05/26 07:36:41;;;;;;;324.53;27.27;;;;;;;25.36;55.99;98909.84;4198922;28;20643;-85
2023/05/26 07:38:44;;;;;;;345.03;25.60;;;;;;;25.38;55.13;98905.19;4189390;28;20647;-85
2023/05/26 07:40:48;;;;;;;346.80;27.57;;;;;;;25.41;55.56;98902.16;4197152;28;20638;-85
2023/05/26 07:42:51;;;;;;;345.20;30.80;;;;;;;25.48;56.03;98897.72;4184882;28;21068;-85
2023/05/26 07:44:55;;;;;;;344.80;31.57;;;;;;;25.40;55.15;98892.47;4200427;28;20729;-85
2023/05/26 07:46:58;;;;;;;345.23;31.57;;;;;;;25.50;56.14;98895.75;4199309;28;20638;-85
2023/05/26 07:49:01;;;;;;;346.67;32.07;;;;;;;25.57;55.34;98893.19;4200117;28;20651;-85
2023/05/26 07:51:06;;;;;;;314.80;29.23;;;;;;;25.59;56.40;98902.69;4201610;28;21066;-85
2023/05/26 07:53:09;;;;;;;345.93;30.83;;;;;;;25.62;55.48;98907.69;4197315;28;20725;-85
2023/05/26 07:55:12;;;;;;;344.70;25.90;;;;;;;25.71;57.79;98895.94;4199374;28;21205;-85
2023/05/26 07:57:15;;;;;;;345.17;28.27;;;;;;;25.70;57.06;98900.44;4199754;28;20740;-85
2023/05/26 07:59:32;;;;;;;345.67;30.07;;;;;;;25.81;55.19;98902.69;4199351;28;20629;-85
2023/05/26 08:01:35;;;;;;;344.30;25.13;;;;;;;25.77;55.72;98897.88;4183247;28;20738;-85
2023/05/26 08:03:38;;;;;;;344.50;35.10;;;;;;;25.84;58.08;98891.63;4197798;28;20655;-86
2023/05/26 08:05:43;;;;;;;344.47;27.87;;;;;;;25.76;56.70;98896.22;4199404;28;20666;-85
2023/05/26 08:07:47;;;;;;;345.60;33.17;;;;;;;25.79;57.18;98896.69;4202672;28;20708;-85
2023/05/26 08:09:52;;;;;;;345.63;29.37;;;;;;;25.83;56.77;98892.66;4201210;28;20979;-85
2023/05/26 08:11:55;;;;;;;343.93;25.67;;;;;;;25.88;58.77;98892.13;4197993;28;20623;-86
2023/05/26 08:13:59;;;;;;;344.20;27.63;;;;;;;25.88;55.17;98889.44;4189965;28;20707;-84
2023/05/26 08:16:02;;;;;;;346.87;31.53;;;;;;;25.71;55.22;98891.44;4195578;28;20670;-84
2023/05/26 08:18:05;;;;;;;344.87;28.03;;;;;;;25.52;54.91;98879.53;4183322;28;20628;-84
2023/05/26 08:20:09;;;;;;;346.70;27.40;;;;;;;25.28;56.02;98888.53;4201042;28;20638;-84
2023/05/26 08:22:12;;;;;;;344.73;31.83;;;;;;;25.25;55.12;98883.53;4190340;28;20643;-85
2023/05/26 08:24:17;;;;;;;344.20;29.17;;;;;;;25.16;56.13;98889.13;4212120;28;21280;-84
2023/05/26 08:26:20;;;;;;;308.63;27.73;;;;;;;25.24;56.69;98887.22;4181349;28;20733;-84
2023/05/26 08:28:23;;;;;;;342.07;24.83;;;;;;;25.43;57.52;98889.44;4194884;28;20631;-84
2023/05/26 08:30:27;;;;;;;345.87;29.17;;;;;;;25.57;57.71;98893.19;4196506;28;20758;-84
2023/05/26 08:32:30;;;;;;;347.23;28.10;;;;;;;25.60;58.59;98888.28;4199600;28;20667;-85
2023/05/26 08:34:33;;;;;;;344.50;26.00;;;;;;;25.70;60.08;98888.94;4194394;28;21023;-84
2023/05/26 08:36:36;;;;;;;344.17;29.23;;;;;;;25.82;57.66;98888.31;4193555;28;21449;-84
2023/05/26 08:38:39;;;;;;;344.03;24.87;;;;;;;25.98;59.50;98879.31;4197027;28;20665;-84
2023/05/26 08:40:44;;;;;;;345.00;28.37;;;;;;;25.90;54.89;98871.38;4197779;28;20627;-84
2023/05/26 08:42:48;;;;;;;344.80;27.63;;;;;;;25.78;57.02;98867.47;4197476;28;21190;-84
2023/05/26 08:44:51;;;;;;;343.57;29.30;;;;;;;25.89;56.43;98875.91;4193095;28;21099;-84
2023/05/26 08:46:57;;;;;;;343.00;27.87;;;;;;;25.80;56.08;98878.81;4195193;28;20677;-84
2023/05/26 08:49:01;;;;;;;343.00;29.07;;;;;;;25.90;58.26;98874.88;4179527;28;20674;-84
2023/05/26 08:51:05;;;;;;;346.13;30.47;;;;;;;26.10;57.20;98879.53;4202773;28;20669;-84
2023/05/26 08:53:08;;;;;;;1392.13;641.07;;;;;;;26.31;59.18;98882.38;4193899;28;20619;-84
2023/05/26 08:55:12;;;;;;;6.77;5.10;;;;;;;25.99;53.67;98873.78;4192820;28;20635;-84
2023/05/26 08:57:18;;;;;;;7.03;5.70;;;;;;;25.67;54.28;98862.56;4190107;28;20636;-84
2023/05/26 08:59:22;;;;;;;7.63;5.43;;;;;;;25.51;54.30;98857.28;4194156;28;20634;-84
2023/05/26 09:01:25;;;;;;;6.80;5.43;;;;;;;25.50;54.25;98852.97;4184625;28;20616;-84
2023/05/26 09:03:28;;;;;;;6.67;4.97;;;;;;;25.50;55.15;98862.81;4188856;28;20631;-84
2023/05/26 09:05:32;;;;;;;7.53;4.50;;;;;;;25.41;55.42;98848.69;4194954;28;20725;-84
2023/05/26 09:07:35;;;;;;;12.90;5.67;;;;;;;25.35;55.10;98862.78;4199388;28;20678;-84
2023/05/26 09:09:38;;;;;;;8.60;6.47;;;;;;;25.35;54.95;98856.56;4199321;28;21319;-84
2023/05/26 09:11:42;;;;;;;10.07;7.53;;;;;;;25.42;56.51;98852.19;4199570;28;21108;-84
2023/05/26 09:13:57;;;;;;;8.90;5.70;;;;;;;25.42;55.10;98858.34;4203900;28;20623;-84
2023/05/26 09:16:01;;;;;;;7.17;5.27;;;;;;;25.54;55.37;98862.28;4198040;28;20668;-84
2023/05/26 09:18:19;;;;;;;6.80;5.33;;;;;;;25.43;55.43;98857.34;4198703;28;20656;-84
2023/05/26 09:20:22;;;;;;;7.80;5.83;;;;;;;25.26;54.62;98860.34;4192734;28;20655;-84
2023/05/26 09:22:33;;;;;;;6.27;5.30;;;;;;;25.17;55.76;98864.91;4196969;28;20791;-84
2023/05/26 09:24:49;;;;;;;7.43;5.70;;;;;;;25.09;56.41;98866.78;4192980;28;20689;-83
2023/05/26 09:26:52;;;;;;;8.30;5.47;;;;;;;25.21;56.56;98866.22;4197169;28;20636;-84
2023/05/26 09:28:57;;;;;;;7.57;6.50;;;;;;;25.52;62.94;98877.69;4178643;28;21074;-83
2023/05/26 09:31:00;;;;;;;7.93;5.67;;;;;;;25.81;58.93;98875.13;4197662;28;20650;-84